sensor_id;sensor_type;location;lat;lon;timestamp;temperature;humidity
77305;DHT22;66364;52.622;7.746;2023-02-15T00:01:42;2.90;99.90
77305;DHT22;66364;52.622;7.746;2023-02-15T00:03:44;2.90;99.90
77305;DHT22;66364;52.622;7.746;2023-02-15T00:05:45;3.10;99.90
77305;DHT22;66364;52.622;7.746;2023-02-15T00:07:47;2.80;99.90
77305;DHT22;66364;52.622;7.746;2023-02-15T00:09:48;2.80;99.90
77305;DHT22;66364;52.622;7.746;2023-02-15T00:11:49;2.60;99.90
77305;DHT22;66364;52.622;7.746;2023-02-15T00:13:50;2.60;99.90
77305;DHT22;66364;52.622;7.746;2023-02-15T00:15:51;2.80;99.90
77305;DHT22;66364;52.622;7.746;2023-02-15T00:17:52;2.90;99.90
77305;DHT22;66364;52.622;7.746;2023-02-15T00:19:53;3.00;99.90
77305;DHT22;66364;52.622;7.746;2023-02-15T00:21:53;2.70;99.90
77305;DHT22;66364;52.622;7.746;2023-02-15T00:23:54;2.80;99.90
77305;DHT22;66364;52.622;7.746;2023-02-15T00:26:09;3.10;99.90
77305;DHT22;66364;52.622;7.746;2023-02-15T00:28:10;3.00;99.90
77305;DHT22;66364;52.622;7.746;2023-02-15T00:30:12;3.10;99.90
77305;DHT22;66364;52.622;7.746;2023-02-15T00:32:13;2.80;99.90
77305;DHT22;66364;52.622;7.746;2023-02-15T00:34:17;2.80;99.90
77305;DHT22;66364;52.622;7.746;2023-02-15T00:36:19;2.80;99.90
77305;DHT22;66364;52.622;7.746;2023-02-15T00:38:30;2.70;99.90
77305;DHT22;66364;52.622;7.746;2023-02-15T00:40:32;2.50;99.90
77305;DHT22;66364;52.622;7.746;2023-02-15T00:42:32;2.70;99.90
77305;DHT22;66364;52.622;7.746;2023-02-15T00:44:39;2.80;99.90
77305;DHT22;66364;52.622;7.746;2023-02-15T00:46:41;3.00;99.90
77305;DHT22;66364;52.622;7.746;2023-02-15T00:48:42;2.80;99.90
77305;DHT22;66364;52.622;7.746;2023-02-15T00:50:48;2.70;99.90
77305;DHT22;66364;52.622;7.746;2023-02-15T00:52:49;2.60;99.90
77305;DHT22;66364;52.622;7.746;2023-02-15T00:54:52;2.20;99.90
77305;DHT22;66364;52.622;7.746;2023-02-15T00:56:53;2.50;99.90
77305;DHT22;66364;52.622;7.746;2023-02-15T00:58:54;2.60;99.90
77305;DHT22;66364;52.622;7.746;2023-02-15T01:00:54;2.50;99.90
77305;DHT22;66364;52.622;7.746;2023-02-15T01:02:56;2.20;99.90
77305;DHT22;66364;52.622;7.746;2023-02-15T01:04:58;2.40;99.90
77305;DHT22;66364;52.622;7.746;2023-02-15T01:06:59;2.30;99.90
77305;DHT22;66364;52.622;7.746;2023-02-15T01:09:00;2.40;99.90
77305;DHT22;66364;52.622;7.746;2023-02-15T01:11:04;2.40;99.90
77305;DHT22;66364;52.622;7.746;2023-02-15T01:13:06;2.30;99.90
77305;DHT22;66364;52.622;7.746;2023-02-15T01:15:09;2.40;99.90
77305;DHT22;66364;52.622;7.746;2023-02-15T01:17:10;2.50;99.90
77305;DHT22;66364;52.622;7.746;2023-02-15T01:19:12;2.30;99.90
77305;DHT22;66364;52.622;7.746;2023-02-15T01:21:15;2.30;99.90
77305;DHT22;66364;52.622;7.746;2023-02-15T01:23:17;2.40;99.90
77305;DHT22;66364;52.622;7.746;2023-02-15T01:25:20;2.30;99.90
77305;DHT22;66364;52.622;7.746;2023-02-15T01:27:21;2.40;99.90
77305;DHT22;66364;52.622;7.746;2023-02-15T01:29:22;2.60;99.90
77305;DHT22;66364;52.622;7.746;2023-02-15T01:31:23;2.30;99.90
77305;DHT22;66364;52.622;7.746;2023-02-15T01:33:25;2.20;99.90
77305;DHT22;66364;52.622;7.746;2023-02-15T01:35:26;2.40;99.90
77305;DHT22;66364;52.622;7.746;2023-02-15T01:37:30;2.50;99.90
77305;DHT22;66364;52.622;7.746;2023-02-15T01:39:33;2.30;99.90
77305;DHT22;66364;52.622;7.746;2023-02-15T01:41:34;2.40;99.90
77305;DHT22;66364;52.622;7.746;2023-02-15T01:43:45;2.60;99.90
77305;DHT22;66364;52.622;7.746;2023-02-15T01:45:47;2.40;99.90
77305;DHT22;66364;52.622;7.746;2023-02-15T01:50:18;2.20;99.90
77305;DHT22;66364;52.622;7.746;2023-02-15T01:52:20;2.40;99.90
77305;DHT22;66364;52.622;7.746;2023-02-15T01:54:24;2.30;99.90
77305;DHT22;66364;52.622;7.746;2023-02-15T01:56:29;2.00;99.90
77305;DHT22;66364;52.622;7.746;2023-02-15T01:58:32;2.10;99.90
77305;DHT22;66364;52.622;7.746;2023-02-15T02:00:35;2.30;99.90
77305;DHT22;66364;52.622;7.746;2023-02-15T02:02:36;2.40;99.90
77305;DHT22;66364;52.622;7.746;2023-02-15T02:04:41;1.50;99.90
77305;DHT22;66364;52.622;7.746;2023-02-15T02:06:44;2.10;99.90
77305;DHT22;66364;52.622;7.746;2023-02-15T02:08:47;2.00;99.90
77305;DHT22;66364;52.622;7.746;2023-02-15T02:10:53;2.00;99.90
77305;DHT22;66364;52.622;7.746;2023-02-15T02:13:02;2.10;99.90
77305;DHT22;66364;52.622;7.746;2023-02-15T02:15:05;1.70;99.90
77305;DHT22;66364;52.622;7.746;2023-02-15T02:17:21;1.70;99.90
77305;DHT22;66364;52.622;7.746;2023-02-15T02:28:26;2.10;99.90
77305;DHT22;66364;52.622;7.746;2023-02-15T02:33:38;2.10;99.90
77305;DHT22;66364;52.622;7.746;2023-02-15T02:38:08;1.90;99.90
77305;DHT22;66364;52.622;7.746;2023-02-15T02:42:44;1.60;99.90
77305;DHT22;66364;52.622;7.746;2023-02-15T02:44:57;1.80;99.90
77305;DHT22;66364;52.622;7.746;2023-02-15T02:47:00;1.30;99.90
77305;DHT22;66364;52.622;7.746;2023-02-15T02:49:02;1.80;99.90
77305;DHT22;66364;52.622;7.746;2023-02-15T02:51:04;1.40;99.90
77305;DHT22;66364;52.622;7.746;2023-02-15T02:53:05;1.10;99.90
77305;DHT22;66364;52.622;7.746;2023-02-15T02:55:10;1.40;99.90
77305;DHT22;66364;52.622;7.746;2023-02-15T02:57:11;1.60;99.90
77305;DHT22;66364;52.622;7.746;2023-02-15T02:59:19;1.50;99.90
77305;DHT22;66364;52.622;7.746;2023-02-15T03:03:30;1.70;99.90
77305;DHT22;66364;52.622;7.746;2023-02-15T03:05:34;1.70;99.90
77305;DHT22;66364;52.622;7.746;2023-02-15T03:07:38;1.60;99.90
77305;DHT22;66364;52.622;7.746;2023-02-15T03:09:45;1.70;99.90
77305;DHT22;66364;52.622;7.746;2023-02-15T03:11:49;1.60;99.90
77305;DHT22;66364;52.622;7.746;2023-02-15T03:13:51;1.00;99.90
77305;DHT22;66364;52.622;7.746;2023-02-15T03:15:52;1.30;99.90
77305;DHT22;66364;52.622;7.746;2023-02-15T03:17:57;1.60;99.90
77305;DHT22;66364;52.622;7.746;2023-02-15T03:20:10;1.60;99.90
77305;DHT22;66364;52.622;7.746;2023-02-15T03:25:01;1.60;99.90
77305;DHT22;66364;52.622;7.746;2023-02-15T03:27:09;1.50;99.90
77305;DHT22;66364;52.622;7.746;2023-02-15T03:29:11;1.30;99.90
77305;DHT22;66364;52.622;7.746;2023-02-15T03:31:16;1.20;99.90
77305;DHT22;66364;52.622;7.746;2023-02-15T03:33:19;1.30;99.90
77305;DHT22;66364;52.622;7.746;2023-02-15T03:35:24;1.30;99.90
77305;DHT22;66364;52.622;7.746;2023-02-15T03:37:32;1.20;99.90
77305;DHT22;66364;52.622;7.746;2023-02-15T03:39:40;1.30;99.90
77305;DHT22;66364;52.622;7.746;2023-02-15T03:41:46;1.30;99.90
77305;DHT22;66364;52.622;7.746;2023-02-15T03:44:14;1.00;99.90
77305;DHT22;66364;52.622;7.746;2023-02-15T03:46:24;1.20;99.90
77305;DHT22;66364;52.622;7.746;2023-02-15T03:48:30;1.00;99.90
77305;DHT22;66364;52.622;7.746;2023-02-15T03:50:32;0.90;99.90
77305;DHT22;66364;52.622;7.746;2023-02-15T03:52:36;1.00;99.90
77305;DHT22;66364;52.622;7.746;2023-02-15T03:54:38;1.40;99.90
77305;DHT22;66364;52.622;7.746;2023-02-15T03:56:41;1.30;99.90
77305;DHT22;66364;52.622;7.746;2023-02-15T03:58:42;1.50;99.90
77305;DHT22;66364;52.622;7.746;2023-02-15T04:00:48;1.50;99.90
77305;DHT22;66364;52.622;7.746;2023-02-15T04:02:57;1.30;99.90
77305;DHT22;66364;52.622;7.746;2023-02-15T04:04:53;1.40;99.90
77305;DHT22;66364;52.622;7.746;2023-02-15T04:06:55;1.10;99.90
77305;DHT22;66364;52.622;7.746;2023-02-15T04:08:56;0.90;99.90
77305;DHT22;66364;52.622;7.746;2023-02-15T04:10:57;1.20;99.90
77305;DHT22;66364;52.622;7.746;2023-02-15T04:12:58;1.40;99.90
77305;DHT22;66364;52.622;7.746;2023-02-15T04:14:59;1.00;99.90
77305;DHT22;66364;52.622;7.746;2023-02-15T04:17:00;1.20;99.90
77305;DHT22;66364;52.622;7.746;2023-02-15T04:19:12;0.90;99.90
77305;DHT22;66364;52.622;7.746;2023-02-15T04:21:13;1.10;99.90
77305;DHT22;66364;52.622;7.746;2023-02-15T04:23:14;0.90;99.90
77305;DHT22;66364;52.622;7.746;2023-02-15T04:25:15;1.00;99.90
77305;DHT22;66364;52.622;7.746;2023-02-15T04:27:17;1.30;99.90
77305;DHT22;66364;52.622;7.746;2023-02-15T04:29:19;1.20;99.90
77305;DHT22;66364;52.622;7.746;2023-02-15T04:31:20;1.30;99.90
77305;DHT22;66364;52.622;7.746;2023-02-15T04:33:21;1.30;99.90
77305;DHT22;66364;52.622;7.746;2023-02-15T04:35:22;1.30;99.90
77305;DHT22;66364;52.622;7.746;2023-02-15T04:37:23;1.30;99.90
77305;DHT22;66364;52.622;7.746;2023-02-15T04:39:48;1.20;99.90
77305;DHT22;66364;52.622;7.746;2023-02-15T04:41:50;1.10;99.90
77305;DHT22;66364;52.622;7.746;2023-02-15T04:43:51;1.40;99.90
77305;DHT22;66364;52.622;7.746;2023-02-15T04:45:52;1.40;99.90
77305;DHT22;66364;52.622;7.746;2023-02-15T04:47:53;1.10;99.90
77305;DHT22;66364;52.622;7.746;2023-02-15T04:49:53;1.10;99.90
77305;DHT22;66364;52.622;7.746;2023-02-15T04:51:55;0.80;99.90
77305;DHT22;66364;52.622;7.746;2023-02-15T04:53:56;1.00;99.90
77305;DHT22;66364;52.622;7.746;2023-02-15T04:55:58;1.10;99.90
77305;DHT22;66364;52.622;7.746;2023-02-15T04:57:59;0.90;99.90
77305;DHT22;66364;52.622;7.746;2023-02-15T05:00:00;0.80;99.90
77305;DHT22;66364;52.622;7.746;2023-02-15T05:02:01;0.70;99.90
77305;DHT22;66364;52.622;7.746;2023-02-15T05:04:03;0.90;99.90
77305;DHT22;66364;52.622;7.746;2023-02-15T05:06:05;1.10;99.90
77305;DHT22;66364;52.622;7.746;2023-02-15T05:08:06;1.10;99.90
77305;DHT22;66364;52.622;7.746;2023-02-15T05:10:09;0.60;99.90
77305;DHT22;66364;52.622;7.746;2023-02-15T05:12:18;1.00;99.90
77305;DHT22;66364;52.622;7.746;2023-02-15T05:14:19;1.10;99.90
77305;DHT22;66364;52.622;7.746;2023-02-15T05:16:20;1.10;99.90
77305;DHT22;66364;52.622;7.746;2023-02-15T05:20:44;0.60;99.90
77305;DHT22;66364;52.622;7.746;2023-02-15T05:22:46;0.90;99.90
77305;DHT22;66364;52.622;7.746;2023-02-15T05:24:47;0.80;99.90
77305;DHT22;66364;52.622;7.746;2023-02-15T05:26:48;0.80;99.90
77305;DHT22;66364;52.622;7.746;2023-02-15T05:28:49;0.60;99.90
77305;DHT22;66364;52.622;7.746;2023-02-15T05:31:00;0.90;99.90
77305;DHT22;66364;52.622;7.746;2023-02-15T05:33:27;0.60;99.90
77305;DHT22;66364;52.622;7.746;2023-02-15T05:35:29;0.50;99.90
77305;DHT22;66364;52.622;7.746;2023-02-15T05:37:31;0.90;99.90
77305;DHT22;66364;52.622;7.746;2023-02-15T05:39:33;0.40;99.90
77305;DHT22;66364;52.622;7.746;2023-02-15T05:41:34;0.80;99.90
77305;DHT22;66364;52.622;7.746;2023-02-15T05:43:35;0.70;99.90
77305;DHT22;66364;52.622;7.746;2023-02-15T05:45:37;0.60;99.90
77305;DHT22;66364;52.622;7.746;2023-02-15T05:47:39;0.60;99.90
77305;DHT22;66364;52.622;7.746;2023-02-15T05:49:40;0.70;99.90
77305;DHT22;66364;52.622;7.746;2023-02-15T05:51:41;0.80;99.90
77305;DHT22;66364;52.622;7.746;2023-02-15T05:53:42;0.70;99.90
77305;DHT22;66364;52.622;7.746;2023-02-15T05:55:44;0.80;99.90
77305;DHT22;66364;52.622;7.746;2023-02-15T05:57:45;0.60;99.90
77305;DHT22;66364;52.622;7.746;2023-02-15T05:59:47;0.10;99.90
77305;DHT22;66364;52.622;7.746;2023-02-15T06:01:48;0.70;99.90
77305;DHT22;66364;52.622;7.746;2023-02-15T06:03:50;0.40;99.90
77305;DHT22;66364;52.622;7.746;2023-02-15T06:05:52;0.40;99.90
77305;DHT22;66364;52.622;7.746;2023-02-15T06:07:53;0.60;99.90
77305;DHT22;66364;52.622;7.746;2023-02-15T06:09:53;0.80;99.90
77305;DHT22;66364;52.622;7.746;2023-02-15T06:11:55;0.70;99.90
77305;DHT22;66364;52.622;7.746;2023-02-15T06:13:56;0.60;99.90
77305;DHT22;66364;52.622;7.746;2023-02-15T06:15:58;0.70;99.90
77305;DHT22;66364;52.622;7.746;2023-02-15T06:17:59;0.70;99.90
77305;DHT22;66364;52.622;7.746;2023-02-15T06:20:00;0.80;99.90
77305;DHT22;66364;52.622;7.746;2023-02-15T06:22:01;0.80;99.90
77305;DHT22;66364;52.622;7.746;2023-02-15T06:24:02;0.60;99.90
77305;DHT22;66364;52.622;7.746;2023-02-15T06:26:03;0.60;99.90
77305;DHT22;66364;52.622;7.746;2023-02-15T06:28:04;0.50;99.90
77305;DHT22;66364;52.622;7.746;2023-02-15T06:30:06;0.90;99.90
77305;DHT22;66364;52.622;7.746;2023-02-15T06:32:08;0.70;99.90
77305;DHT22;66364;52.622;7.746;2023-02-15T06:34:09;0.60;99.90
77305;DHT22;66364;52.622;7.746;2023-02-15T06:36:11;0.80;99.90
77305;DHT22;66364;52.622;7.746;2023-02-15T06:38:12;0.60;99.90
77305;DHT22;66364;52.622;7.746;2023-02-15T06:40:13;0.60;99.90
77305;DHT22;66364;52.622;7.746;2023-02-15T06:42:14;0.70;99.90
77305;DHT22;66364;52.622;7.746;2023-02-15T06:44:15;0.80;99.90
77305;DHT22;66364;52.622;7.746;2023-02-15T06:46:16;0.50;99.90
77305;DHT22;66364;52.622;7.746;2023-02-15T06:48:17;0.80;99.90
77305;DHT22;66364;52.622;7.746;2023-02-15T06:50:19;0.70;99.90
77305;DHT22;66364;52.622;7.746;2023-02-15T06:52:20;0.50;99.90
77305;DHT22;66364;52.622;7.746;2023-02-15T06:54:21;0.90;99.90
77305;DHT22;66364;52.622;7.746;2023-02-15T06:56:22;0.80;99.90
77305;DHT22;66364;52.622;7.746;2023-02-15T06:58:23;0.10;99.90
77305;DHT22;66364;52.622;7.746;2023-02-15T07:00:25;0.90;99.90
77305;DHT22;66364;52.622;7.746;2023-02-15T07:02:26;0.40;99.90
77305;DHT22;66364;52.622;7.746;2023-02-15T07:04:27;0.70;99.90
77305;DHT22;66364;52.622;7.746;2023-02-15T07:06:40;0.50;99.90
77305;DHT22;66364;52.622;7.746;2023-02-15T07:08:41;0.70;99.90
77305;DHT22;66364;52.622;7.746;2023-02-15T07:10:45;0.60;99.90
77305;DHT22;66364;52.622;7.746;2023-02-15T07:12:46;0.60;99.90
77305;DHT22;66364;52.622;7.746;2023-02-15T07:14:48;0.50;99.90
77305;DHT22;66364;52.622;7.746;2023-02-15T07:16:49;0.70;99.90
77305;DHT22;66364;52.622;7.746;2023-02-15T07:18:49;0.60;99.90
77305;DHT22;66364;52.622;7.746;2023-02-15T07:20:50;0.70;99.90
77305;DHT22;66364;52.622;7.746;2023-02-15T07:22:51;1.00;99.90
77305;DHT22;66364;52.622;7.746;2023-02-15T07:24:52;1.00;99.90
77305;DHT22;66364;52.622;7.746;2023-02-15T07:26:53;0.50;99.90
77305;DHT22;66364;52.622;7.746;2023-02-15T07:28:54;1.00;99.90
77305;DHT22;66364;52.622;7.746;2023-02-15T07:30:55;0.80;99.90
77305;DHT22;66364;52.622;7.746;2023-02-15T07:32:57;1.10;99.90
77305;DHT22;66364;52.622;7.746;2023-02-15T07:34:58;1.10;99.90
77305;DHT22;66364;52.622;7.746;2023-02-15T07:36:59;1.00;99.90
77305;DHT22;66364;52.622;7.746;2023-02-15T07:39:00;1.30;99.90
77305;DHT22;66364;52.622;7.746;2023-02-15T07:41:05;1.20;99.90
77305;DHT22;66364;52.622;7.746;2023-02-15T07:43:07;1.30;99.90
77305;DHT22;66364;52.622;7.746;2023-02-15T07:45:08;1.40;99.90
77305;DHT22;66364;52.622;7.746;2023-02-15T07:47:09;1.20;99.90
77305;DHT22;66364;52.622;7.746;2023-02-15T07:49:10;1.40;99.90
77305;DHT22;66364;52.622;7.746;2023-02-15T07:51:13;1.50;99.90
77305;DHT22;66364;52.622;7.746;2023-02-15T07:53:14;1.60;99.90
77305;DHT22;66364;52.622;7.746;2023-02-15T07:55:14;1.60;99.90
77305;DHT22;66364;52.622;7.746;2023-02-15T07:57:17;1.70;99.90
77305;DHT22;66364;52.622;7.746;2023-02-15T07:59:19;1.70;99.90
77305;DHT22;66364;52.622;7.746;2023-02-15T08:01:30;1.70;99.90
77305;DHT22;66364;52.622;7.746;2023-02-15T08:03:32;2.00;99.90
77305;DHT22;66364;52.622;7.746;2023-02-15T08:05:33;1.90;99.90
77305;DHT22;66364;52.622;7.746;2023-02-15T08:07:34;2.00;99.90
77305;DHT22;66364;52.622;7.746;2023-02-15T08:09:35;2.00;99.90
77305;DHT22;66364;52.622;7.746;2023-02-15T08:11:37;2.40;99.90
77305;DHT22;66364;52.622;7.746;2023-02-15T08:13:39;2.50;99.90
77305;DHT22;66364;52.622;7.746;2023-02-15T08:15:53;2.40;99.90
77305;DHT22;66364;52.622;7.746;2023-02-15T08:17:51;2.60;99.90
77305;DHT22;66364;52.622;7.746;2023-02-15T08:19:52;2.60;99.90
77305;DHT22;66364;52.622;7.746;2023-02-15T08:22:02;3.20;99.90
77305;DHT22;66364;52.622;7.746;2023-02-15T08:24:05;3.00;99.90
77305;DHT22;66364;52.622;7.746;2023-02-15T08:26:06;3.20;99.90
77305;DHT22;66364;52.622;7.746;2023-02-15T08:28:07;3.30;99.90
77305;DHT22;66364;52.622;7.746;2023-02-15T08:30:10;3.40;99.90
77305;DHT22;66364;52.622;7.746;2023-02-15T08:32:12;3.70;99.90
77305;DHT22;66364;52.622;7.746;2023-02-15T08:34:16;4.00;99.90
77305;DHT22;66364;52.622;7.746;2023-02-15T08:36:20;3.60;99.90
77305;DHT22;66364;52.622;7.746;2023-02-15T08:38:22;4.20;99.90
77305;DHT22;66364;52.622;7.746;2023-02-15T08:40:23;4.30;99.90
77305;DHT22;66364;52.622;7.746;2023-02-15T08:42:24;4.20;99.90
77305;DHT22;66364;52.622;7.746;2023-02-15T08:44:25;4.90;99.90
77305;DHT22;66364;52.622;7.746;2023-02-15T08:46:28;5.00;99.90
77305;DHT22;66364;52.622;7.746;2023-02-15T08:48:30;5.10;99.90
77305;DHT22;66364;52.622;7.746;2023-02-15T08:50:31;5.70;99.90
77305;DHT22;66364;52.622;7.746;2023-02-15T08:52:32;5.90;99.90
77305;DHT22;66364;52.622;7.746;2023-02-15T08:54:33;6.10;99.90
77305;DHT22;66364;52.622;7.746;2023-02-15T08:56:37;6.20;99.90
77305;DHT22;66364;52.622;7.746;2023-02-15T08:58:38;6.60;99.90
77305;DHT22;66364;52.622;7.746;2023-02-15T09:00:39;6.80;99.90
77305;DHT22;66364;52.622;7.746;2023-02-15T09:02:40;6.70;99.90
77305;DHT22;66364;52.622;7.746;2023-02-15T09:04:42;6.90;99.90
77305;DHT22;66364;52.622;7.746;2023-02-15T09:06:45;7.20;99.90
77305;DHT22;66364;52.622;7.746;2023-02-15T09:08:47;7.00;99.90
77305;DHT22;66364;52.622;7.746;2023-02-15T09:10:47;7.10;99.90
77305;DHT22;66364;52.622;7.746;2023-02-15T09:12:49;7.00;99.90
77305;DHT22;66364;52.622;7.746;2023-02-15T09:14:49;7.50;99.90
77305;DHT22;66364;52.622;7.746;2023-02-15T09:16:52;7.60;99.90
77305;DHT22;66364;52.622;7.746;2023-02-15T09:18:54;8.20;99.90
77305;DHT22;66364;52.622;7.746;2023-02-15T09:20:55;8.00;99.90
77305;DHT22;66364;52.622;7.746;2023-02-15T09:22:57;8.30;99.90
77305;DHT22;66364;52.622;7.746;2023-02-15T09:24:58;8.50;99.90
77305;DHT22;66364;52.622;7.746;2023-02-15T09:26:59;8.70;99.90
77305;DHT22;66364;52.622;7.746;2023-02-15T09:29:01;8.80;99.90
77305;DHT22;66364;52.622;7.746;2023-02-15T09:31:13;9.40;99.90
77305;DHT22;66364;52.622;7.746;2023-02-15T09:33:15;9.60;99.90
77305;DHT22;66364;52.622;7.746;2023-02-15T09:35:16;10.20;99.90
77305;DHT22;66364;52.622;7.746;2023-02-15T09:37:17;10.40;99.90
77305;DHT22;66364;52.622;7.746;2023-02-15T09:39:21;10.60;99.90
77305;DHT22;66364;52.622;7.746;2023-02-15T09:41:36;10.90;99.90
77305;DHT22;66364;52.622;7.746;2023-02-15T09:46:11;11.20;99.90
77305;DHT22;66364;52.622;7.746;2023-02-15T09:48:16;11.60;99.90
77305;DHT22;66364;52.622;7.746;2023-02-15T09:50:20;11.70;98.20
77305;DHT22;66364;52.622;7.746;2023-02-15T09:54:48;12.10;94.40
77305;DHT22;66364;52.622;7.746;2023-02-15T10:01:06;11.80;90.50
77305;DHT22;66364;52.622;7.746;2023-02-15T10:05:33;11.90;90.90
77305;DHT22;66364;52.622;7.746;2023-02-15T10:16:26;11.30;89.10
77305;DHT22;66364;52.622;7.746;2023-02-15T10:18:48;11.30;88.30
77305;DHT22;66364;52.622;7.746;2023-02-15T10:21:00;11.60;83.40
77305;DHT22;66364;52.622;7.746;2023-02-15T10:27:20;12.00;81.30
77305;DHT22;66364;52.622;7.746;2023-02-15T10:29:27;12.30;79.40
77305;DHT22;66364;52.622;7.746;2023-02-15T10:31:49;12.10;80.50
77305;DHT22;66364;52.622;7.746;2023-02-15T10:41:14;12.40;73.60
77305;DHT22;66364;52.622;7.746;2023-02-15T10:46:19;11.50;75.40
77305;DHT22;66364;52.622;7.746;2023-02-15T10:59:37;12.70;69.80
77305;DHT22;66364;52.622;7.746;2023-02-15T11:01:45;12.70;70.60
77305;DHT22;66364;52.622;7.746;2023-02-15T11:06:14;13.20;68.70
77305;DHT22;66364;52.622;7.746;2023-02-15T11:08:16;12.70;68.80
77305;DHT22;66364;52.622;7.746;2023-02-15T11:12:36;11.80;71.70
77305;DHT22;66364;52.622;7.746;2023-02-15T11:17:04;11.70;73.70
77305;DHT22;66364;52.622;7.746;2023-02-15T11:19:22;11.40;75.70
77305;DHT22;66364;52.622;7.746;2023-02-15T11:21:37;11.40;77.10
77305;DHT22;66364;52.622;7.746;2023-02-15T11:23:30;11.90;75.80
77305;DHT22;66364;52.622;7.746;2023-02-15T11:25:34;11.70;74.20
77305;DHT22;66364;52.622;7.746;2023-02-15T11:27:37;11.40;76.00
77305;DHT22;66364;52.622;7.746;2023-02-15T11:30:28;11.60;76.10
77305;DHT22;66364;52.622;7.746;2023-02-15T11:31:46;12.10;74.90
77305;DHT22;66364;52.622;7.746;2023-02-15T11:33:54;12.10;71.80
77305;DHT22;66364;52.622;7.746;2023-02-15T11:36:14;12.10;72.90
77305;DHT22;66364;52.622;7.746;2023-02-15T11:38:23;11.80;75.50
77305;DHT22;66364;52.622;7.746;2023-02-15T11:40:39;12.30;73.10
77305;DHT22;66364;52.622;7.746;2023-02-15T11:42:39;12.20;72.20
77305;DHT22;66364;52.622;7.746;2023-02-15T11:45:02;11.90;73.90
77305;DHT22;66364;52.622;7.746;2023-02-15T11:47:10;12.30;72.00
77305;DHT22;66364;52.622;7.746;2023-02-15T11:49:24;11.30;73.90
77305;DHT22;66364;52.622;7.746;2023-02-15T11:51:21;11.70;74.70
77305;DHT22;66364;52.622;7.746;2023-02-15T11:53:23;12.00;76.40
77305;DHT22;66364;52.622;7.746;2023-02-15T11:55:24;12.40;71.20
77305;DHT22;66364;52.622;7.746;2023-02-15T11:57:33;13.00;70.80
77305;DHT22;66364;52.622;7.746;2023-02-15T11:59:34;13.60;67.50
77305;DHT22;66364;52.622;7.746;2023-02-15T12:01:43;14.00;66.80
77305;DHT22;66364;52.622;7.746;2023-02-15T12:03:47;14.40;64.30
77305;DHT22;66364;52.622;7.746;2023-02-15T12:05:53;13.90;63.00
77305;DHT22;66364;52.622;7.746;2023-02-15T12:08:09;13.90;63.30
77305;DHT22;66364;52.622;7.746;2023-02-15T12:10:26;13.70;62.50
77305;DHT22;66364;52.622;7.746;2023-02-15T12:12:32;13.80;64.80
77305;DHT22;66364;52.622;7.746;2023-02-15T12:14:47;13.90;62.40
77305;DHT22;66364;52.622;7.746;2023-02-15T12:16:51;13.30;64.40
77305;DHT22;66364;52.622;7.746;2023-02-15T12:18:56;14.00;64.70
77305;DHT22;66364;52.622;7.746;2023-02-15T12:21:00;15.10;60.90
77305;DHT22;66364;52.622;7.746;2023-02-15T12:23:06;15.40;58.90
77305;DHT22;66364;52.622;7.746;2023-02-15T12:25:23;15.40;57.70
77305;DHT22;66364;52.622;7.746;2023-02-15T12:27:27;15.90;57.30
77305;DHT22;66364;52.622;7.746;2023-02-15T12:29:34;16.20;56.50
77305;DHT22;66364;52.622;7.746;2023-02-15T12:31:46;15.70;54.50
77305;DHT22;66364;52.622;7.746;2023-02-15T12:33:44;15.60;56.80
77305;DHT22;66364;52.622;7.746;2023-02-15T12:35:46;15.20;55.10
77305;DHT22;66364;52.622;7.746;2023-02-15T12:38:09;14.90;56.40
77305;DHT22;66364;52.622;7.746;2023-02-15T12:40:22;15.40;55.10
77305;DHT22;66364;52.622;7.746;2023-02-15T12:42:24;15.20;53.80
77305;DHT22;66364;52.622;7.746;2023-02-15T12:44:28;15.70;53.00
77305;DHT22;66364;52.622;7.746;2023-02-15T12:46:30;15.80;50.90
77305;DHT22;66364;52.622;7.746;2023-02-15T12:48:31;15.40;51.80
77305;DHT22;66364;52.622;7.746;2023-02-15T12:50:32;15.00;55.20
77305;DHT22;66364;52.622;7.746;2023-02-15T12:52:33;15.40;55.30
77305;DHT22;66364;52.622;7.746;2023-02-15T12:54:40;16.40;52.50
77305;DHT22;66364;52.622;7.746;2023-02-15T12:56:42;16.80;48.00
77305;DHT22;66364;52.622;7.746;2023-02-15T12:58:43;16.20;49.10
77305;DHT22;66364;52.622;7.746;2023-02-15T13:00:45;15.60;51.60
77305;DHT22;66364;52.622;7.746;2023-02-15T13:02:49;15.80;52.70
77305;DHT22;66364;52.622;7.746;2023-02-15T13:04:51;16.10;50.90
77305;DHT22;66364;52.622;7.746;2023-02-15T13:06:57;16.50;47.30
77305;DHT22;66364;52.622;7.746;2023-02-15T13:09:25;16.50;48.30
77305;DHT22;66364;52.622;7.746;2023-02-15T13:11:10;16.10;46.50
77305;DHT22;66364;52.622;7.746;2023-02-15T13:13:17;15.40;48.70
77305;DHT22;66364;52.622;7.746;2023-02-15T13:15:24;15.50;52.70
77305;DHT22;66364;52.622;7.746;2023-02-15T13:17:32;16.10;49.60
77305;DHT22;66364;52.622;7.746;2023-02-15T13:20:09;16.50;45.50
77305;DHT22;66364;52.622;7.746;2023-02-15T13:21:46;15.70;46.40
77305;DHT22;66364;52.622;7.746;2023-02-15T13:23:57;16.00;47.80
77305;DHT22;66364;52.622;7.746;2023-02-15T13:25:58;16.00;45.90
77305;DHT22;66364;52.622;7.746;2023-02-15T13:28:02;16.40;44.50
77305;DHT22;66364;52.622;7.746;2023-02-15T13:30:34;16.10;46.20
77305;DHT22;66364;52.622;7.746;2023-02-15T13:32:38;16.50;45.80
77305;DHT22;66364;52.622;7.746;2023-02-15T13:34:39;16.00;46.20
77305;DHT22;66364;52.622;7.746;2023-02-15T13:58:31;14.80;49.40
77305;DHT22;66364;52.622;7.746;2023-02-15T14:15:08;14.40;54.50
77305;DHT22;66364;52.622;7.746;2023-02-15T14:19:46;14.30;57.20
77305;DHT22;66364;52.622;7.746;2023-02-15T14:28:42;16.20;48.90
77305;DHT22;66364;52.622;7.746;2023-02-15T14:30:45;16.10;50.30
77305;DHT22;66364;52.622;7.746;2023-02-15T14:32:54;15.70;49.30
77305;DHT22;66364;52.622;7.746;2023-02-15T14:34:55;15.60;48.60
77305;DHT22;66364;52.622;7.746;2023-02-15T14:36:57;15.70;49.00
77305;DHT22;66364;52.622;7.746;2023-02-15T14:39:18;16.10;48.40
77305;DHT22;66364;52.622;7.746;2023-02-15T14:48:11;15.80;48.10
77305;DHT22;66364;52.622;7.746;2023-02-15T14:55:35;14.70;51.30
77305;DHT22;66364;52.622;7.746;2023-02-15T14:57:37;13.60;56.30
77305;DHT22;66364;52.622;7.746;2023-02-15T14:59:49;13.40;58.00
77305;DHT22;66364;52.622;7.746;2023-02-15T15:04:24;13.10;60.20
77305;DHT22;66364;52.622;7.746;2023-02-15T15:06:31;12.90;61.80
77305;DHT22;66364;52.622;7.746;2023-02-15T15:08:37;12.80;62.50
77305;DHT22;66364;52.622;7.746;2023-02-15T15:10:45;12.80;63.50
77305;DHT22;66364;52.622;7.746;2023-02-15T15:12:51;12.70;64.20
77305;DHT22;66364;52.622;7.746;2023-02-15T15:14:53;12.90;64.30
77305;DHT22;66364;52.622;7.746;2023-02-15T15:16:54;13.20;64.60
77305;DHT22;66364;52.622;7.746;2023-02-15T15:18:56;12.90;64.30
77305;DHT22;66364;52.622;7.746;2023-02-15T15:20:59;12.80;64.30
77305;DHT22;66364;52.622;7.746;2023-02-15T15:27:51;12.70;65.10
77305;DHT22;66364;52.622;7.746;2023-02-15T15:29:53;12.70;65.80
77305;DHT22;66364;52.622;7.746;2023-02-15T15:31:55;12.40;66.80
77305;DHT22;66364;52.622;7.746;2023-02-15T15:39:39;12.20;69.00
77305;DHT22;66364;52.622;7.746;2023-02-15T15:41:59;12.20;69.80
77305;DHT22;66364;52.622;7.746;2023-02-15T15:44:09;12.30;70.10